N133B ZBYN-ZBAA
Flight info
| Callsign | N133B |
|---|---|
| Flight time | N/A |
| Altitude | 26600 |
| Route | TONOV G212 AMVOG W61 NUDKU W56 DUGEB DUGEB4A |
| Aircraft | TBM8/L-SDFGRWY/S |
Departure
| Time | 2026-04-22 12:55 |
|---|---|
| Airport | Taiyuan Wusu International Airport (ZBYN) |
Arrival
| Time | N/A |
|---|---|
| Airport | Beijing Capital International Airport (ZBAA) |
| Time | Latitude | Longitude | Altitude | Speed | Heading |
|---|---|---|---|---|---|
| 2026-04-22 12:41 | 37.75650 | 112.61773 | 2547 ft | 0 kts | 218° |
| 2026-04-22 12:50 | 37.75649 | 112.61772 | 2547 ft | 1 kts | 218° |
| 2026-04-22 12:50 | 37.75623 | 112.61746 | 2559 ft | 9 kts | 217° |
| 2026-04-22 12:50 | 37.75596 | 112.61682 | 2547 ft | 10 kts | 310° |
| 2026-04-22 12:50 | 37.75641 | 112.61608 | 2546 ft | 11 kts | 307° |
| 2026-04-22 12:51 | 37.75652 | 112.61536 | 2544 ft | 8 kts | 214° |
| 2026-04-22 12:51 | 37.75613 | 112.61501 | 2547 ft | 6 kts | 217° |
| 2026-04-22 12:51 | 37.75608 | 112.61496 | 2548 ft | 0 kts | 217° |
| 2026-04-22 12:53 | 37.75607 | 112.61495 | 2548 ft | 2 kts | 216° |
| 2026-04-22 12:53 | 37.75553 | 112.61446 | 2548 ft | 15 kts | 205° |
| 2026-04-22 12:53 | 37.75507 | 112.61477 | 2549 ft | 0 kts | 127° |
| 2026-04-22 12:54 | 37.75473 | 112.61534 | 2550 ft | 29 kts | 127° |
| 2026-04-22 12:54 | 37.75235 | 112.61933 | 2557 ft | 83 kts | 127° |
| 2026-04-22 12:54 | 37.74815 | 112.62661 | 2618 ft | 117 kts | 123° |
| 2026-04-22 12:54 | 37.74343 | 112.63527 | 2993 ft | 120 kts | 125° |
| 2026-04-22 12:55 | 37.73994 | 112.64058 | 3328 ft | 118 kts | 130° |
| 2026-04-22 12:55 | 37.73309 | 112.65165 | 3916 ft | 122 kts | 128° |
| 2026-04-22 12:55 | 37.72800 | 112.66023 | 4368 ft | 122 kts | 128° |
| 2026-04-22 12:55 | 37.72293 | 112.66874 | 4814 ft | 121 kts | 129° |
| 2026-04-22 12:56 | 37.71785 | 112.67727 | 5241 ft | 122 kts | 128° |
| 2026-04-22 12:56 | 37.71268 | 112.68581 | 5670 ft | 122 kts | 128° |
| 2026-04-22 12:56 | 37.70754 | 112.69444 | 6096 ft | 123 kts | 129° |
| 2026-04-22 12:56 | 37.70231 | 112.70305 | 6549 ft | 124 kts | 129° |
| 2026-04-22 12:57 | 37.69707 | 112.71185 | 6965 ft | 126 kts | 129° |
| 2026-04-22 12:57 | 37.69177 | 112.72068 | 7407 ft | 126 kts | 129° |
| 2026-04-22 12:57 | 37.68644 | 112.72956 | 7832 ft | 127 kts | 129° |
| 2026-04-22 12:57 | 37.68288 | 112.73550 | 8109 ft | 128 kts | 128° |
| 2026-04-22 12:58 | 37.67572 | 112.74748 | 8654 ft | 130 kts | 129° |
| 2026-04-22 12:58 | 37.67020 | 112.75655 | 9090 ft | 131 kts | 129° |
| 2026-04-22 12:58 | 37.66469 | 112.76576 | 9518 ft | 132 kts | 128° |
| 2026-04-22 12:58 | 37.65910 | 112.77504 | 9921 ft | 133 kts | 128° |
| 2026-04-22 12:59 | 37.65352 | 112.78442 | 10303 ft | 135 kts | 126° |
| 2026-04-22 12:59 | 37.64776 | 112.79405 | 10660 ft | 139 kts | 127° |
| 2026-04-22 12:59 | 37.64181 | 112.80381 | 11033 ft | 141 kts | 126° |
| 2026-04-22 12:59 | 37.63788 | 112.81032 | 11300 ft | 141 kts | 126° |
| 2026-04-22 13:00 | 37.63188 | 112.82033 | 11665 ft | 144 kts | 126° |
| 2026-04-22 13:00 | 37.62583 | 112.83038 | 12078 ft | 144 kts | 125° |
| 2026-04-22 13:00 | 37.61977 | 112.84048 | 12472 ft | 145 kts | 125° |
| 2026-04-22 13:00 | 37.61365 | 112.85066 | 12883 ft | 146 kts | 124° |
| 2026-04-22 13:01 | 37.60751 | 112.86088 | 13287 ft | 147 kts | 124° |
| 2026-04-22 13:01 | 37.60129 | 112.87117 | 13701 ft | 148 kts | 124° |
| 2026-04-22 13:01 | 37.59504 | 112.88154 | 14068 ft | 149 kts | 124° |
| 2026-04-22 13:01 | 37.58872 | 112.89199 | 14433 ft | 150 kts | 124° |
| 2026-04-22 13:02 | 37.58239 | 112.90253 | 14804 ft | 151 kts | 124° |
| 2026-04-22 13:02 | 37.57974 | 112.91466 | 15184 ft | 143 kts | 71° |
| 2026-04-22 13:02 | 37.58512 | 112.92450 | 15521 ft | 137 kts | 34° |
| 2026-04-22 13:02 | 37.59363 | 112.92910 | 15894 ft | 133 kts | 5° |
| 2026-04-22 13:03 | 37.60282 | 112.93142 | 16240 ft | 136 kts | 10° |
| 2026-04-22 13:03 | 37.61198 | 112.93443 | 16612 ft | 136 kts | 10° |
| 2026-04-22 13:03 | 37.62118 | 112.93755 | 16974 ft | 137 kts | 11° |
| 2026-04-22 13:03 | 37.63042 | 112.94074 | 17342 ft | 138 kts | 11° |
| 2026-04-22 13:04 | 37.63971 | 112.94398 | 17694 ft | 139 kts | 11° |
| 2026-04-22 13:04 | 37.64905 | 112.94725 | 18052 ft | 140 kts | 11° |
| 2026-04-22 13:04 | 37.65845 | 112.95054 | 18398 ft | 141 kts | 11° |
| 2026-04-22 13:04 | 37.66794 | 112.95387 | 18697 ft | 143 kts | 10° |
| 2026-04-22 13:05 | 37.67757 | 112.95725 | 18989 ft | 145 kts | 10° |
| 2026-04-22 13:05 | 37.68731 | 112.96067 | 19283 ft | 147 kts | 10° |
| 2026-04-22 13:05 | 37.69722 | 112.96415 | 19575 ft | 148 kts | 9° |
| 2026-04-22 13:05 | 37.70741 | 112.96764 | 19696 ft | 164 kts | 10° |
| 2026-04-22 13:06 | 37.71914 | 112.97186 | 19715 ft | 186 kts | 11° |
| 2026-04-22 13:06 | 37.73233 | 112.97659 | 19711 ft | 207 kts | 11° |
| 2026-04-22 13:06 | 37.74681 | 112.98166 | 19714 ft | 224 kts | 12° |
| 2026-04-22 13:06 | 37.76237 | 112.98708 | 19711 ft | 239 kts | 12° |
| 2026-04-22 13:07 | 37.77882 | 112.99283 | 19712 ft | 250 kts | 12° |
| 2026-04-22 13:07 | 37.79591 | 112.99888 | 19711 ft | 259 kts | 12° |
| 2026-04-22 13:07 | 37.81352 | 113.00509 | 19712 ft | 266 kts | 12° |
| 2026-04-22 13:07 | 37.83153 | 113.01144 | 19710 ft | 271 kts | 12° |
| 2026-04-22 13:08 | 37.84984 | 113.01790 | 19708 ft | 275 kts | 13° |
| 2026-04-22 13:08 | 37.86837 | 113.02444 | 19710 ft | 278 kts | 13° |
| 2026-04-22 13:08 | 37.88708 | 113.03104 | 19714 ft | 280 kts | 13° |
| 2026-04-22 13:08 | 37.90587 | 113.03768 | 19714 ft | 281 kts | 13° |
| 2026-04-22 13:09 | 37.92477 | 113.04436 | 19718 ft | 283 kts | 13° |